createdAt,value
2022-10-04T00:02:34.697Z,13.90
2022-10-04T00:05:27.499Z,13.90
2022-10-04T00:08:28.877Z,13.90
2022-10-04T00:11:17.466Z,13.90
2022-10-04T00:14:31.477Z,13.90
2022-10-04T00:17:23.967Z,13.90
2022-10-04T00:20:47.447Z,13.90
2022-10-04T00:23:38.868Z,13.90
2022-10-04T00:26:24.336Z,13.90
2022-10-04T00:29:33.800Z,13.90
2022-10-04T00:32:28.685Z,13.90
2022-10-04T00:35:27.083Z,13.90
2022-10-04T00:38:21.207Z,13.90
2022-10-04T00:41:08.837Z,13.80
2022-10-04T00:43:57.411Z,13.80
2022-10-04T00:46:45.582Z,13.80
2022-10-04T00:49:40.288Z,13.80
2022-10-04T00:52:29.254Z,13.70
2022-10-04T00:55:39.500Z,13.70
2022-10-04T00:58:44.952Z,13.70
2022-10-04T01:01:41.057Z,13.60
2022-10-04T01:04:28.972Z,13.60
2022-10-04T01:07:22.218Z,13.60
2022-10-04T01:10:27.731Z,13.50
2022-10-04T01:13:58.978Z,13.50
2022-10-04T01:16:44.611Z,13.40
2022-10-04T01:19:32.406Z,13.40
2022-10-04T01:22:48.681Z,13.30
2022-10-04T01:25:56.959Z,13.30
2022-10-04T01:28:42.724Z,13.30
2022-10-04T01:31:33.926Z,13.20
2022-10-04T01:34:25.040Z,13.20
2022-10-04T01:37:14.503Z,13.10
2022-10-04T01:40:02.923Z,13.10
2022-10-04T01:42:54.977Z,13.00
2022-10-04T01:45:53.724Z,13.00
2022-10-04T01:48:44.303Z,13.00
2022-10-04T01:51:38.104Z,13.00
2022-10-04T01:54:36.138Z,12.90
2022-10-04T01:57:31.839Z,12.90
2022-10-04T02:00:20.700Z,12.90
2022-10-04T02:03:13.814Z,12.80
2022-10-04T02:06:03.004Z,12.80
2022-10-04T02:08:57.351Z,12.80
2022-10-04T02:11:44.553Z,12.90
2022-10-04T02:14:35.897Z,12.80
2022-10-04T02:17:25.837Z,12.80
2022-10-04T02:20:21.474Z,12.80
2022-10-04T02:23:09.768Z,12.80
2022-10-04T02:25:55.496Z,12.70
2022-10-04T02:28:40.955Z,12.70
2022-10-04T02:31:46.402Z,12.60
2022-10-04T02:34:32.607Z,12.60
2022-10-04T02:37:19.060Z,12.50
2022-10-04T02:40:30.148Z,12.50
2022-10-04T02:43:22.504Z,12.40
2022-10-04T02:46:30.754Z,12.30
2022-10-04T02:49:33.258Z,12.20
2022-10-04T02:52:26.311Z,12.20
2022-10-04T02:55:20.449Z,12.10
2022-10-04T02:58:10.878Z,12.10
2022-10-04T03:00:58.887Z,12.00
2022-10-04T03:03:47.427Z,12.00
2022-10-04T03:06:33.399Z,12.00
2022-10-04T03:09:26.133Z,12.00
2022-10-04T03:12:15.121Z,12.00
2022-10-04T03:15:00.862Z,11.90
2022-10-04T03:17:46.849Z,11.90
2022-10-04T03:20:39.172Z,11.80
2022-10-04T03:23:24.682Z,11.80
2022-10-04T03:26:38.210Z,11.80
2022-10-04T03:29:27.523Z,11.80
2022-10-04T03:32:15.739Z,11.80
2022-10-04T03:35:05.549Z,11.80
2022-10-04T03:37:57.364Z,11.70
2022-10-04T03:40:51.712Z,11.70
2022-10-04T03:43:44.308Z,11.70
2022-10-04T03:46:29.926Z,11.70
2022-10-04T03:49:26.465Z,11.70
2022-10-04T03:52:21.051Z,11.70
2022-10-04T03:55:08.189Z,11.70
2022-10-04T03:57:53.747Z,11.60
2022-10-04T04:01:03.306Z,11.60
2022-10-04T04:04:16.159Z,11.60
2022-10-04T04:07:08.494Z,11.50
2022-10-04T04:10:22.968Z,11.50
2022-10-04T04:13:13.978Z,11.50
2022-10-04T04:16:02.681Z,11.50
2022-10-04T04:18:49.962Z,11.50
2022-10-04T04:21:36.965Z,11.40
2022-10-04T04:24:32.114Z,11.40
2022-10-04T04:27:23.891Z,11.40
2022-10-04T04:30:17.056Z,11.50
2022-10-04T04:33:10.816Z,11.50
2022-10-04T04:36:05.225Z,11.50
2022-10-04T04:39:09.316Z,11.50
2022-10-04T04:41:54.911Z,11.50
2022-10-04T04:45:06.459Z,11.50
2022-10-04T04:47:57.305Z,11.50
2022-10-04T04:50:43.605Z,11.40
2022-10-04T04:53:30.265Z,11.40
2022-10-04T04:56:23.331Z,11.40
2022-10-04T04:59:17.900Z,11.40
2022-10-04T05:02:03.816Z,11.40
2022-10-04T05:04:50.412Z,11.40
2022-10-04T05:07:36.140Z,11.40
2022-10-04T05:10:31.688Z,11.40
2022-10-04T05:13:17.391Z,11.40
2022-10-04T05:16:03.862Z,11.40
2022-10-04T05:18:59.104Z,11.40
2022-10-04T05:21:49.702Z,11.40
2022-10-04T05:24:39.529Z,11.40
2022-10-04T05:27:35.973Z,11.40
2022-10-04T05:30:36.599Z,11.40
2022-10-04T05:33:39.560Z,11.40
2022-10-04T05:36:31.568Z,11.40
2022-10-04T05:39:29.239Z,11.30
2022-10-04T05:42:25.961Z,11.30
2022-10-04T05:45:19.207Z,11.30
2022-10-04T05:48:09.016Z,11.20
2022-10-04T05:50:54.285Z,11.20
2022-10-04T05:53:42.015Z,11.10
2022-10-04T05:56:37.719Z,11.10
2022-10-04T05:59:43.157Z,11.10
2022-10-04T06:02:36.954Z,11.10
2022-10-04T06:05:51.970Z,11.10
2022-10-04T06:08:43.697Z,11.10
2022-10-04T06:11:35.057Z,11.10
2022-10-04T06:14:30.667Z,11.00
2022-10-04T06:17:34.387Z,11.10
2022-10-04T06:20:54.912Z,11.10
2022-10-04T06:24:10.376Z,11.10
2022-10-04T06:27:17.338Z,11.10
2022-10-04T06:30:31.831Z,11.10
2022-10-04T06:33:17.409Z,11.10
2022-10-04T06:36:25.316Z,11.10
2022-10-04T06:39:38.118Z,11.10
2022-10-04T06:43:08.106Z,11.10
2022-10-04T06:45:56.429Z,11.10
2022-10-04T06:49:04.820Z,11.20
2022-10-04T06:52:08.561Z,11.20
2022-10-04T06:55:20.816Z,11.30
2022-10-04T06:58:33.281Z,11.40
2022-10-04T07:01:29.989Z,11.40
2022-10-04T07:05:06.553Z,11.50
2022-10-04T07:08:06.355Z,11.60
2022-10-04T07:11:19.812Z,11.70
2022-10-04T07:14:23.527Z,11.80
2022-10-04T07:17:16.246Z,12.00
2022-10-04T07:20:02.581Z,12.10
2022-10-04T07:23:05.025Z,12.20
2022-10-04T07:26:00.837Z,12.30
2022-10-04T07:29:06.403Z,12.40
2022-10-04T07:32:04.248Z,12.50
2022-10-04T07:34:59.099Z,12.60
2022-10-04T07:38:01.644Z,12.70
2022-10-04T07:41:07.406Z,12.80
2022-10-04T07:43:59.307Z,12.90
2022-10-04T07:47:18.154Z,13.00
2022-10-04T07:50:37.234Z,13.10
2022-10-04T07:53:53.439Z,13.30
2022-10-04T07:57:00.737Z,13.40
2022-10-04T08:00:22.293Z,13.60
2022-10-04T08:03:10.665Z,13.70
2022-10-04T08:06:18.611Z,13.80
2022-10-04T08:09:40.280Z,13.90
2022-10-04T08:12:51.946Z,14.00
2022-10-04T08:15:42.788Z,14.10
2022-10-04T08:19:02.337Z,14.20
2022-10-04T08:22:14.591Z,14.20
2022-10-04T08:25:26.263Z,14.30
2022-10-04T08:28:38.398Z,14.30
2022-10-04T08:31:27.008Z,14.40
2022-10-04T08:34:32.160Z,14.60
2022-10-04T08:37:42.412Z,14.70
2022-10-04T08:40:49.645Z,14.90
2022-10-04T08:43:56.940Z,14.90
2022-10-04T08:46:53.097Z,14.90
2022-10-04T08:49:57.944Z,14.90
2022-10-04T08:53:30.589Z,14.90
2022-10-04T08:56:21.290Z,14.90
2022-10-04T08:59:37.196Z,14.80
2022-10-04T09:02:52.480Z,14.80
2022-10-04T09:06:12.344Z,14.80
2022-10-04T09:09:35.395Z,14.80
2022-10-04T09:12:44.428Z,14.80
2022-10-04T09:15:51.369Z,14.80
2022-10-04T09:18:53.352Z,14.90
2022-10-04T09:21:47.572Z,14.90
2022-10-04T09:25:02.166Z,14.90
2022-10-04T09:28:38.174Z,15.10
2022-10-04T09:31:55.944Z,15.10
2022-10-04T09:34:52.588Z,15.30
2022-10-04T09:38:03.886Z,15.50
2022-10-04T09:41:03.700Z,15.60
2022-10-04T09:44:20.067Z,15.70
2022-10-04T09:47:32.096Z,15.80
2022-10-04T09:50:37.303Z,16.10
2022-10-04T09:53:44.327Z,16.20
2022-10-04T09:56:35.582Z,16.40
2022-10-04T09:59:27.358Z,16.60
2022-10-04T10:02:40.372Z,16.70
2022-10-04T10:05:44.152Z,16.70
2022-10-04T10:08:55.617Z,16.70
2022-10-04T10:12:11.571Z,16.80
2022-10-04T10:15:12.123Z,16.80
2022-10-04T10:18:15.895Z,16.90
2022-10-04T10:21:19.823Z,17.10
2022-10-04T10:24:36.121Z,17.30
2022-10-04T10:27:43.144Z,17.50
2022-10-04T10:30:59.336Z,17.50
2022-10-04T10:34:02.600Z,17.70
2022-10-04T10:37:00.438Z,17.80
2022-10-04T10:40:12.880Z,17.80
2022-10-04T10:43:07.139Z,17.70
2022-10-04T10:46:28.391Z,17.80
2022-10-04T10:49:46.360Z,18.00
2022-10-04T10:52:54.596Z,18.10
2022-10-04T10:56:17.768Z,18.10
2022-10-04T10:59:40.582Z,18.20
2022-10-04T11:02:48.643Z,18.40
2022-10-04T11:06:14.414Z,18.70
2022-10-04T11:09:05.524Z,19.50
2022-10-04T11:12:32.726Z,20.30
2022-10-04T11:16:22.304Z,20.70
2022-10-04T11:19:29.297Z,21.40
2022-10-04T11:23:15.282Z,22.10
2022-10-04T11:26:34.187Z,22.40
2022-10-04T11:29:45.623Z,22.10
2022-10-04T11:33:16.245Z,21.70
2022-10-04T11:36:24.555Z,21.40
2022-10-04T11:39:44.838Z,21.20
2022-10-04T11:42:39.035Z,21.00
2022-10-04T11:45:38.263Z,21.20
2022-10-04T11:48:47.520Z,21.50
2022-10-04T11:52:04.671Z,22.00
2022-10-04T11:55:21.176Z,22.50
2022-10-04T11:58:33.045Z,23.10
2022-10-04T12:01:30.318Z,23.70
2022-10-04T12:04:53.827Z,24.10
2022-10-04T12:07:43.942Z,23.60
2022-10-04T12:10:39.029Z,23.60
2022-10-04T12:13:27.255Z,24.20
2022-10-04T12:16:57.647Z,24.80
2022-10-04T12:20:30.970Z,25.90
2022-10-04T12:23:48.706Z,26.70
2022-10-04T12:26:54.878Z,27.70
2022-10-04T12:30:00.024Z,28.00
2022-10-04T12:32:58.422Z,28.10
2022-10-04T12:36:14.796Z,28.40
2022-10-04T12:39:06.136Z,28.50
2022-10-04T12:42:28.166Z,28.60
2022-10-04T12:45:28.697Z,29.00
2022-10-04T12:48:33.142Z,29.70
2022-10-04T12:51:58.161Z,29.50
2022-10-04T12:54:50.723Z,29.70
2022-10-04T12:57:42.509Z,29.70
2022-10-04T13:00:32.523Z,29.70
2022-10-04T13:03:42.644Z,29.90
2022-10-04T13:06:52.201Z,30.30
2022-10-04T13:10:22.620Z,30.30
2022-10-04T13:13:21.363Z,30.20
2022-10-04T13:20:31.045Z,30.00
2022-10-04T13:23:27.207Z,29.80
2022-10-04T13:26:34.015Z,30.50
2022-10-04T13:34:39.172Z,30.50
2022-10-04T13:37:45.447Z,30.00
2022-10-04T13:40:49.596Z,29.50
2022-10-04T13:43:40.860Z,29.40
2022-10-04T13:46:45.148Z,29.60
2022-10-04T13:50:00.590Z,29.90
2022-10-04T13:53:22.135Z,30.00
2022-10-04T13:56:37.695Z,30.30
2022-10-04T13:59:47.383Z,30.20
2022-10-04T14:02:55.674Z,30.40
2022-10-04T14:06:18.983Z,31.10
2022-10-04T14:09:21.684Z,31.10
2022-10-04T14:12:45.403Z,30.50
2022-10-04T14:15:56.280Z,30.20
2022-10-04T14:19:03.925Z,29.60
2022-10-04T14:22:27.843Z,29.00
2022-10-04T14:25:35.198Z,28.80
2022-10-04T14:29:07.358Z,29.50
2022-10-04T14:32:23.527Z,30.60
2022-10-04T14:35:34.863Z,30.60
2022-10-04T14:38:56.799Z,30.10
2022-10-04T14:41:56.310Z,29.50
2022-10-04T14:45:18.127Z,28.50
2022-10-04T14:48:27.142Z,27.50
2022-10-04T14:51:29.136Z,27.00
2022-10-04T14:54:25.491Z,26.70
2022-10-04T14:57:21.555Z,26.40
2022-10-04T15:00:17.426Z,26.10
2022-10-04T15:03:49.151Z,26.20
2022-10-04T15:06:53.954Z,25.70
2022-10-04T15:10:06.163Z,24.70
2022-10-04T15:13:16.079Z,24.20
2022-10-04T15:16:28.953Z,23.60
2022-10-04T15:19:20.364Z,23.20
2022-10-04T15:22:13.888Z,22.90
2022-10-04T15:24:59.441Z,22.60
2022-10-04T15:27:54.140Z,22.30
2022-10-04T15:31:03.232Z,22.00
2022-10-04T15:34:16.713Z,21.90
2022-10-04T15:37:27.827Z,21.80
2022-10-04T15:40:50.001Z,21.90
2022-10-04T15:44:13.122Z,22.40
2022-10-04T15:47:08.121Z,22.30
2022-10-04T15:50:27.569Z,22.00
2022-10-04T15:53:39.127Z,21.80
2022-10-04T15:56:37.547Z,21.60
2022-10-04T15:59:55.535Z,21.50
2022-10-04T16:03:09.185Z,21.40
2022-10-04T16:06:06.186Z,21.10
2022-10-04T16:08:51.379Z,20.90
2022-10-04T16:12:23.515Z,20.60
2022-10-04T16:15:31.528Z,20.50
2022-10-04T16:18:36.784Z,20.20
2022-10-04T16:22:23.718Z,20.10
2022-10-04T16:25:25.327Z,19.90
2022-10-04T16:28:29.902Z,19.80
2022-10-04T16:31:24.842Z,19.60
2022-10-04T16:34:42.175Z,19.50
2022-10-04T16:37:53.064Z,19.50
2022-10-04T16:40:50.910Z,19.40
2022-10-04T16:43:49.372Z,19.30
2022-10-04T16:46:44.794Z,19.30
2022-10-04T16:49:41.744Z,19.30
2022-10-04T16:52:59.808Z,19.20
2022-10-04T16:56:10.352Z,19.20
2022-10-04T16:59:05.886Z,19.20
2022-10-04T17:02:36.330Z,19.10
2022-10-04T17:05:30.856Z,19.10
2022-10-04T17:08:16.307Z,19.00
2022-10-04T17:11:27.835Z,19.00
2022-10-04T17:14:49.343Z,19.00
2022-10-04T17:18:04.738Z,18.90
2022-10-04T17:20:59.414Z,18.90
2022-10-04T17:24:07.386Z,18.90
2022-10-04T17:27:13.940Z,18.90
2022-10-04T17:30:15.328Z,18.80
2022-10-04T17:33:12.814Z,18.80
2022-10-04T17:36:09.790Z,18.80
2022-10-04T17:39:32.346Z,18.80
2022-10-04T17:42:33.605Z,18.80
2022-10-04T17:45:40.740Z,18.80
2022-10-04T17:48:50.513Z,18.70
2022-10-04T17:52:07.288Z,18.70
2022-10-04T17:55:17.817Z,18.70
2022-10-04T17:58:15.315Z,18.70
2022-10-04T18:01:30.395Z,18.70
2022-10-04T18:04:36.442Z,18.70
2022-10-04T18:07:26.551Z,18.70
2022-10-04T18:11:06.085Z,18.70
2022-10-04T18:14:05.078Z,18.60
2022-10-04T18:17:01.071Z,18.70
2022-10-04T18:19:48.660Z,18.60
2022-10-04T18:23:02.579Z,18.60
2022-10-04T18:26:10.922Z,18.50
2022-10-04T18:28:59.643Z,18.50
2022-10-04T18:31:47.157Z,18.50
2022-10-04T18:34:32.695Z,18.50
2022-10-04T18:37:31.961Z,18.50
2022-10-04T18:40:33.516Z,18.50
2022-10-04T18:43:30.348Z,18.50
2022-10-04T18:46:21.378Z,18.40
2022-10-04T18:49:24.412Z,18.40
2022-10-04T18:52:10.106Z,18.40
2022-10-04T18:55:25.391Z,18.40
2022-10-04T18:58:55.172Z,18.40
2022-10-04T19:02:12.988Z,18.40
2022-10-04T19:05:15.295Z,18.40
2022-10-04T19:08:30.739Z,18.30
2022-10-04T19:11:20.664Z,18.30
2022-10-04T19:14:42.651Z,18.30
2022-10-04T19:17:43.257Z,18.30
2022-10-04T19:20:35.845Z,18.40
2022-10-04T19:23:46.584Z,18.30
2022-10-04T19:26:39.431Z,18.30
2022-10-04T19:30:01.723Z,18.30
2022-10-04T19:32:58.935Z,18.30
2022-10-04T19:35:56.159Z,18.30
2022-10-04T19:38:56.639Z,18.30
2022-10-04T19:41:59.923Z,18.20
2022-10-04T19:45:06.441Z,18.20
2022-10-04T19:47:58.339Z,18.20
2022-10-04T19:50:48.714Z,18.20
2022-10-04T19:53:51.819Z,18.20
2022-10-04T19:56:49.116Z,18.10
2022-10-04T19:59:40.559Z,18.10
2022-10-04T20:02:26.130Z,18.10
2022-10-04T20:05:16.824Z,18.10
2022-10-04T20:08:08.199Z,18.00
2022-10-04T20:11:17.155Z,18.00
2022-10-04T20:14:10.940Z,18.00
2022-10-04T20:17:00.770Z,18.00
2022-10-04T20:19:46.038Z,18.00
2022-10-04T20:22:55.005Z,18.00
2022-10-04T20:25:46.042Z,18.00
2022-10-04T20:28:32.126Z,18.00
2022-10-04T20:31:39.346Z,18.00
2022-10-04T20:34:33.181Z,18.00
2022-10-04T20:37:21.640Z,18.00
2022-10-04T20:40:07.456Z,18.00
2022-10-04T20:43:14.641Z,18.10
2022-10-04T20:46:01.772Z,18.00
2022-10-04T20:48:48.353Z,18.00
2022-10-04T20:51:33.952Z,18.00
2022-10-04T20:54:20.907Z,17.90
2022-10-04T20:57:17.838Z,17.90
2022-10-04T21:00:05.810Z,17.90
2022-10-04T21:03:13.541Z,17.90
2022-10-04T21:06:01.793Z,17.90
2022-10-04T21:08:47.454Z,17.90
2022-10-04T21:11:53.472Z,17.90
2022-10-04T21:14:39.084Z,17.90
2022-10-04T21:17:30.414Z,17.90
2022-10-04T21:20:47.910Z,17.90
2022-10-04T21:23:34.840Z,17.90
2022-10-04T21:26:26.942Z,17.90
2022-10-04T21:29:12.320Z,17.90
2022-10-04T21:31:58.968Z,17.90
2022-10-04T21:34:59.857Z,17.90
2022-10-04T21:37:45.118Z,17.90
2022-10-04T21:40:30.514Z,17.90
2022-10-04T21:43:15.868Z,17.90
2022-10-04T21:46:01.629Z,17.90
2022-10-04T21:48:46.830Z,17.80
2022-10-04T21:51:36.747Z,17.90
2022-10-04T21:54:23.114Z,17.80
2022-10-04T21:57:12.823Z,17.80
2022-10-04T21:59:58.237Z,17.80
2022-10-04T22:02:43.802Z,17.80
2022-10-04T22:05:32.193Z,17.80
2022-10-04T22:08:17.742Z,17.70
2022-10-04T22:11:03.399Z,17.70
2022-10-04T22:13:49.022Z,17.70
2022-10-04T22:16:34.673Z,17.70
2022-10-04T22:19:19.849Z,17.60
2022-10-04T22:22:05.352Z,17.60
2022-10-04T22:24:50.858Z,17.60
2022-10-04T22:27:36.096Z,17.60
2022-10-04T22:30:27.872Z,17.60
2022-10-04T22:33:34.785Z,17.50
2022-10-04T22:36:42.833Z,17.50
2022-10-04T22:39:30.622Z,17.50
2022-10-04T22:42:16.919Z,17.50
2022-10-04T22:45:02.451Z,17.50
2022-10-04T22:47:48.713Z,17.50
2022-10-04T22:50:37.265Z,17.50
2022-10-04T22:53:28.764Z,17.50
2022-10-04T22:56:14.972Z,17.50
2022-10-04T22:59:00.242Z,17.50
2022-10-04T23:01:46.473Z,17.50
2022-10-04T23:04:31.790Z,17.50
2022-10-04T23:07:20.227Z,17.50
2022-10-04T23:10:06.166Z,17.50
2022-10-04T23:12:51.635Z,17.50
2022-10-04T23:15:37.027Z,17.50
2022-10-04T23:18:22.611Z,17.50
2022-10-04T23:21:25.968Z,17.50
2022-10-04T23:24:21.946Z,17.50
2022-10-04T23:27:16.265Z,17.50
2022-10-04T23:30:03.266Z,17.50
2022-10-04T23:32:51.898Z,17.50
2022-10-04T23:35:38.615Z,17.40
2022-10-04T23:38:25.025Z,17.50
2022-10-04T23:41:11.968Z,17.50
2022-10-04T23:43:57.726Z,17.50
2022-10-04T23:46:44.302Z,17.50
2022-10-04T23:49:30.303Z,17.50
2022-10-04T23:52:26.160Z,17.50
2022-10-04T23:55:17.898Z,17.50
2022-10-04T23:58:14.215Z,17.50
